sensor_id;sensor_type;location;lat;lon;timestamp;pressure;altitude;pressure_sealevel;temperature;humidity
84882;BME280;75144;52.360;9.814;2024-01-07T00:01:25;101019.53;;;1.33;89.79
84882;BME280;75144;52.360;9.814;2024-01-07T00:03:51;101027.84;;;1.31;90.33
84882;BME280;75144;52.360;9.814;2024-01-07T00:06:16;101026.09;;;1.30;90.67
84882;BME280;75144;52.360;9.814;2024-01-07T00:08:42;101024.41;;;1.30;89.45
84882;BME280;75144;52.360;9.814;2024-01-07T00:11:07;101028.53;;;1.28;90.21
84882;BME280;75144;52.360;9.814;2024-01-07T00:13:32;101028.38;;;1.25;89.58
84882;BME280;75144;52.360;9.814;2024-01-07T00:15:57;101039.13;;;1.21;90.03
84882;BME280;75144;52.360;9.814;2024-01-07T00:18:23;101038.53;;;1.25;89.32
84882;BME280;75144;52.360;9.814;2024-01-07T00:20:49;101041.16;;;1.27;89.52
84882;BME280;75144;52.360;9.814;2024-01-07T00:23:14;101036.47;;;1.20;90.20
84882;BME280;75144;52.360;9.814;2024-01-07T00:25:39;101045.16;;;1.23;89.54
84882;BME280;75144;52.360;9.814;2024-01-07T00:28:05;101041.56;;;1.20;90.31
84882;BME280;75144;52.360;9.814;2024-01-07T00:30:30;101051.81;;;1.08;90.05
84882;BME280;75144;52.360;9.814;2024-01-07T00:32:55;101048.50;;;1.09;90.79
84882;BME280;75144;52.360;9.814;2024-01-07T00:35:20;101042.81;;;1.13;90.20
84882;BME280;75144;52.360;9.814;2024-01-07T00:37:46;101046.25;;;1.14;90.08
84882;BME280;75144;52.360;9.814;2024-01-07T00:40:11;101049.88;;;1.17;90.35
84882;BME280;75144;52.360;9.814;2024-01-07T00:42:36;101051.81;;;1.08;90.23
84882;BME280;75144;52.360;9.814;2024-01-07T00:45:02;101055.06;;;1.06;90.03
84882;BME280;75144;52.360;9.814;2024-01-07T00:47:28;101058.47;;;1.06;89.42
84882;BME280;75144;52.360;9.814;2024-01-07T00:49:53;101052.09;;;1.00;89.74
84882;BME280;75144;52.360;9.814;2024-01-07T00:52:18;101063.03;;;0.99;90.73
84882;BME280;75144;52.360;9.814;2024-01-07T00:54:43;101069.47;;;0.94;90.16
84882;BME280;75144;52.360;9.814;2024-01-07T00:57:10;101069.59;;;0.95;90.60
84882;BME280;75144;52.360;9.814;2024-01-07T00:59:35;101083.88;;;0.93;90.41
84882;BME280;75144;52.360;9.814;2024-01-07T01:02:01;101085.41;;;0.91;90.49
84882;BME280;75144;52.360;9.814;2024-01-07T01:04:26;101090.50;;;0.91;90.78
84882;BME280;75144;52.360;9.814;2024-01-07T01:06:51;101089.75;;;0.92;90.87
84882;BME280;75144;52.360;9.814;2024-01-07T01:09:16;101092.63;;;0.85;90.46
84882;BME280;75144;52.360;9.814;2024-01-07T01:11:42;101093.81;;;0.90;91.08
84882;BME280;75144;52.360;9.814;2024-01-07T01:14:07;101100.78;;;0.93;90.13
84882;BME280;75144;52.360;9.814;2024-01-07T01:16:32;101101.78;;;0.95;89.77
84882;BME280;75144;52.360;9.814;2024-01-07T01:18:57;101105.97;;;0.94;90.30
84882;BME280;75144;52.360;9.814;2024-01-07T01:21:22;101105.66;;;0.90;91.51
84882;BME280;75144;52.360;9.814;2024-01-07T01:23:48;101106.53;;;0.90;89.53
84882;BME280;75144;52.360;9.814;2024-01-07T01:26:13;101111.03;;;0.94;89.43
84882;BME280;75144;52.360;9.814;2024-01-07T01:28:39;101116.44;;;0.99;89.48
84882;BME280;75144;52.360;9.814;2024-01-07T01:31:04;101116.53;;;1.00;89.27
84882;BME280;75144;52.360;9.814;2024-01-07T01:33:29;101124.53;;;0.93;89.05
84882;BME280;75144;52.360;9.814;2024-01-07T01:35:55;101123.66;;;0.93;89.04
84882;BME280;75144;52.360;9.814;2024-01-07T01:38:20;101128.44;;;0.88;89.43
84882;BME280;75144;52.360;9.814;2024-01-07T01:40:52;101123.47;;;0.90;89.08
84882;BME280;75144;52.360;9.814;2024-01-07T01:43:27;101136.84;;;0.87;88.60
84882;BME280;75144;52.360;9.814;2024-01-07T01:45:54;101133.28;;;0.85;88.90
84882;BME280;75144;52.360;9.814;2024-01-07T01:48:20;101140.84;;;0.84;89.36
84882;BME280;75144;52.360;9.814;2024-01-07T01:50:46;101141.41;;;0.80;89.88
84882;BME280;75144;52.360;9.814;2024-01-07T01:53:12;101151.97;;;0.86;88.67
84882;BME280;75144;52.360;9.814;2024-01-07T01:55:37;101153.75;;;0.87;88.12
84882;BME280;75144;52.360;9.814;2024-01-07T01:58:03;101151.09;;;0.85;87.48
84882;BME280;75144;52.360;9.814;2024-01-07T02:00:30;101156.50;;;0.90;87.64
84882;BME280;75144;52.360;9.814;2024-01-07T02:02:55;101161.78;;;0.93;87.83
84882;BME280;75144;52.360;9.814;2024-01-07T02:05:21;101163.31;;;0.78;87.63
84882;BME280;75144;52.360;9.814;2024-01-07T02:07:47;101160.31;;;0.72;87.74
84882;BME280;75144;52.360;9.814;2024-01-07T02:10:12;101167.88;;;0.70;88.28
84882;BME280;75144;52.360;9.814;2024-01-07T02:12:38;101177.25;;;0.71;88.36
84882;BME280;75144;52.360;9.814;2024-01-07T02:15:03;101179.69;;;0.70;88.11
84882;BME280;75144;52.360;9.814;2024-01-07T02:17:29;101175.81;;;0.63;89.48
84882;BME280;75144;52.360;9.814;2024-01-07T02:19:54;101178.84;;;0.58;88.66
84882;BME280;75144;52.360;9.814;2024-01-07T02:22:19;101177.19;;;0.58;89.08
84882;BME280;75144;52.360;9.814;2024-01-07T02:24:45;101189.78;;;0.57;89.29
84882;BME280;75144;52.360;9.814;2024-01-07T02:27:10;101182.28;;;0.58;88.17
84882;BME280;75144;52.360;9.814;2024-01-07T02:29:35;101187.53;;;0.61;87.91
84882;BME280;75144;52.360;9.814;2024-01-07T02:32:00;101187.00;;;0.65;87.64
84882;BME280;75144;52.360;9.814;2024-01-07T02:34:26;101186.31;;;0.68;87.94
84882;BME280;75144;52.360;9.814;2024-01-07T02:36:51;101197.03;;;0.64;88.33
84882;BME280;75144;52.360;9.814;2024-01-07T02:39:16;101192.31;;;0.57;88.03
84882;BME280;75144;52.360;9.814;2024-01-07T02:41:42;101195.06;;;0.60;87.74
84882;BME280;75144;52.360;9.814;2024-01-07T02:44:07;101197.03;;;0.64;88.57
84882;BME280;75144;52.360;9.814;2024-01-07T02:46:32;101204.56;;;0.62;88.32
84882;BME280;75144;52.360;9.814;2024-01-07T02:48:58;101210.72;;;0.66;89.38
84882;BME280;75144;52.360;9.814;2024-01-07T02:51:24;101211.38;;;0.63;89.15
84882;BME280;75144;52.360;9.814;2024-01-07T02:53:49;101210.41;;;0.61;88.97
84882;BME280;75144;52.360;9.814;2024-01-07T02:56:14;101210.53;;;0.63;88.90
84882;BME280;75144;52.360;9.814;2024-01-07T02:58:39;101211.38;;;0.63;89.21
84882;BME280;75144;52.360;9.814;2024-01-07T03:01:08;101219.59;;;0.59;87.81
84882;BME280;75144;52.360;9.814;2024-01-07T03:03:34;101220.56;;;0.61;87.56
84882;BME280;75144;52.360;9.814;2024-01-07T03:05:59;101219.78;;;0.62;88.49
84882;BME280;75144;52.360;9.814;2024-01-07T03:08:25;101224.09;;;0.63;88.65
84882;BME280;75144;52.360;9.814;2024-01-07T03:10:50;101225.22;;;0.55;88.13
84882;BME280;75144;52.360;9.814;2024-01-07T03:13:15;101228.56;;;0.54;88.46
84882;BME280;75144;52.360;9.814;2024-01-07T03:15:40;101233.41;;;0.51;88.13
84882;BME280;75144;52.360;9.814;2024-01-07T03:18:05;101229.00;;;0.49;87.46
84882;BME280;75144;52.360;9.814;2024-01-07T03:20:31;101234.53;;;0.43;88.11
84882;BME280;75144;52.360;9.814;2024-01-07T03:22:56;101234.66;;;0.45;88.57
84882;BME280;75144;52.360;9.814;2024-01-07T03:25:21;101234.44;;;0.42;89.28
84882;BME280;75144;52.360;9.814;2024-01-07T03:27:47;101241.94;;;0.40;87.92
84882;BME280;75144;52.360;9.814;2024-01-07T03:30:12;101248.22;;;0.45;88.94
84882;BME280;75144;52.360;9.814;2024-01-07T03:32:37;101241.63;;;0.47;87.75
84882;BME280;75144;52.360;9.814;2024-01-07T03:35:03;101243.81;;;0.43;87.14
84882;BME280;75144;52.360;9.814;2024-01-07T03:37:28;101254.09;;;0.44;87.86
84882;BME280;75144;52.360;9.814;2024-01-07T03:39:53;101255.66;;;0.42;87.87
84882;BME280;75144;52.360;9.814;2024-01-07T03:42:18;101260.06;;;0.45;88.59
84882;BME280;75144;52.360;9.814;2024-01-07T03:44:44;101267.88;;;0.48;87.66
84882;BME280;75144;52.360;9.814;2024-01-07T03:47:09;101263.25;;;0.42;86.49
84882;BME280;75144;52.360;9.814;2024-01-07T03:49:36;101268.44;;;0.44;87.71
84882;BME280;75144;52.360;9.814;2024-01-07T03:52:02;101263.34;;;0.44;86.45
84882;BME280;75144;52.360;9.814;2024-01-07T03:54:27;101266.56;;;0.41;85.82
84882;BME280;75144;52.360;9.814;2024-01-07T03:56:52;101276.50;;;0.38;87.03
84882;BME280;75144;52.360;9.814;2024-01-07T03:59:17;101276.38;;;0.37;87.49
84882;BME280;75144;52.360;9.814;2024-01-07T04:01:43;101279.81;;;0.37;87.34
84882;BME280;75144;52.360;9.814;2024-01-07T04:04:08;101286.66;;;0.38;85.92
84882;BME280;75144;52.360;9.814;2024-01-07T04:06:33;101289.75;;;0.34;85.05
84882;BME280;75144;52.360;9.814;2024-01-07T04:08:58;101289.75;;;0.34;85.05
84882;BME280;75144;52.360;9.814;2024-01-07T04:11:24;101290.00;;;0.37;84.83
84882;BME280;75144;52.360;9.814;2024-01-07T04:13:49;101299.56;;;0.41;86.07
84882;BME280;75144;52.360;9.814;2024-01-07T04:16:20;101299.47;;;0.40;85.31
84882;BME280;75144;52.360;9.814;2024-01-07T04:18:46;101306.00;;;0.36;85.58
84882;BME280;75144;52.360;9.814;2024-01-07T04:21:12;101310.06;;;0.34;85.08
84882;BME280;75144;52.360;9.814;2024-01-07T04:23:40;101306.53;;;0.32;85.76
84882;BME280;75144;52.360;9.814;2024-01-07T04:26:07;101305.34;;;0.27;86.20
84882;BME280;75144;52.360;9.814;2024-01-07T04:28:32;101309.75;;;0.30;85.82
84882;BME280;75144;52.360;9.814;2024-01-07T04:30:57;101314.72;;;0.28;86.18
84882;BME280;75144;52.360;9.814;2024-01-07T04:33:23;101320.56;;;0.27;85.13
84882;BME280;75144;52.360;9.814;2024-01-07T04:35:48;101320.78;;;0.30;85.42
84882;BME280;75144;52.360;9.814;2024-01-07T04:38:14;101325.53;;;0.26;85.13
84882;BME280;75144;52.360;9.814;2024-01-07T04:40:39;101327.09;;;0.24;85.73
84882;BME280;75144;52.360;9.814;2024-01-07T04:43:04;101327.19;;;0.25;85.39
84882;BME280;75144;52.360;9.814;2024-01-07T04:45:29;101335.81;;;0.27;84.77
84882;BME280;75144;52.360;9.814;2024-01-07T04:47:55;101335.81;;;0.27;85.59
84882;BME280;75144;52.360;9.814;2024-01-07T04:50:20;101336.78;;;0.29;84.43
84882;BME280;75144;52.360;9.814;2024-01-07T04:52:46;101342.88;;;0.31;84.75
84882;BME280;75144;52.360;9.814;2024-01-07T04:55:11;101347.84;;;0.30;84.44
84882;BME280;75144;52.360;9.814;2024-01-07T04:57:37;101347.97;;;0.31;84.77
84882;BME280;75144;52.360;9.814;2024-01-07T05:00:02;101350.50;;;0.31;85.46
84882;BME280;75144;52.360;9.814;2024-01-07T05:02:28;101352.13;;;0.31;84.80
84882;BME280;75144;52.360;9.814;2024-01-07T05:04:54;101356.00;;;0.26;85.08
84882;BME280;75144;52.360;9.814;2024-01-07T05:07:19;101355.88;;;0.24;84.29
84882;BME280;75144;52.360;9.814;2024-01-07T05:09:44;101360.09;;;0.24;85.16
84882;BME280;75144;52.360;9.814;2024-01-07T05:12:09;101365.16;;;0.24;85.41
84882;BME280;75144;52.360;9.814;2024-01-07T05:14:35;101362.75;;;0.25;84.29
84882;BME280;75144;52.360;9.814;2024-01-07T05:17:01;101373.78;;;0.37;83.56
84882;BME280;75144;52.360;9.814;2024-01-07T05:19:27;101379.19;;;0.30;82.73
84882;BME280;75144;52.360;9.814;2024-01-07T05:21:53;101381.72;;;0.30;83.34
84882;BME280;75144;52.360;9.814;2024-01-07T05:24:18;101382.94;;;0.24;84.24
84882;BME280;75144;52.360;9.814;2024-01-07T05:26:44;101388.44;;;0.18;83.17
84882;BME280;75144;52.360;9.814;2024-01-07T05:29:09;101392.53;;;0.16;81.83
84882;BME280;75144;52.360;9.814;2024-01-07T05:31:35;101389.88;;;0.15;83.48
84882;BME280;75144;52.360;9.814;2024-01-07T05:34:00;101400.16;;;0.16;83.58
84882;BME280;75144;52.360;9.814;2024-01-07T05:36:26;101401.91;;;0.17;81.89
84882;BME280;75144;52.360;9.814;2024-01-07T05:38:51;101406.22;;;0.18;82.30
84882;BME280;75144;52.360;9.814;2024-01-07T05:41:16;101416.81;;;0.13;83.42
84882;BME280;75144;52.360;9.814;2024-01-07T05:43:41;101416.94;;;0.14;82.80
84882;BME280;75144;52.360;9.814;2024-01-07T05:46:07;101409.19;;;0.13;81.94
84882;BME280;75144;52.360;9.814;2024-01-07T05:48:42;101407.97;;;0.08;80.71
84882;BME280;75144;52.360;9.814;2024-01-07T05:51:11;101414.94;;;0.10;80.03
84882;BME280;75144;52.360;9.814;2024-01-07T05:53:36;101412.72;;;0.03;80.12
84882;BME280;75144;52.360;9.814;2024-01-07T05:56:01;101422.63;;;0.00;80.94
84882;BME280;75144;52.360;9.814;2024-01-07T05:58:27;101430.03;;;-0.03;82.08
84882;BME280;75144;52.360;9.814;2024-01-07T06:00:53;101432.63;;;-0.13;80.64
84882;BME280;75144;52.360;9.814;2024-01-07T06:03:18;101436.50;;;-0.06;80.77
84882;BME280;75144;52.360;9.814;2024-01-07T06:05:43;101433.09;;;-0.07;81.42
84882;BME280;75144;52.360;9.814;2024-01-07T06:08:09;101444.75;;;-0.09;80.48
84882;BME280;75144;52.360;9.814;2024-01-07T06:10:35;101439.34;;;-0.13;81.68
84882;BME280;75144;52.360;9.814;2024-01-07T06:13:00;101445.06;;;-0.16;81.32
84882;BME280;75144;52.360;9.814;2024-01-07T06:15:25;101448.91;;;-0.21;80.51
84882;BME280;75144;52.360;9.814;2024-01-07T06:17:51;101462.16;;;-0.24;80.56
84882;BME280;75144;52.360;9.814;2024-01-07T06:20:17;101464.97;;;-0.32;80.58
84882;BME280;75144;52.360;9.814;2024-01-07T06:22:42;101470.34;;;-0.38;81.26
84882;BME280;75144;52.360;9.814;2024-01-07T06:25:07;101474.41;;;-0.40;80.54
84882;BME280;75144;52.360;9.814;2024-01-07T06:27:32;101470.84;;;-0.43;80.08
84882;BME280;75144;52.360;9.814;2024-01-07T06:29:58;101485.38;;;-0.51;81.64
84882;BME280;75144;52.360;9.814;2024-01-07T06:32:23;101485.59;;;-0.48;79.62
84882;BME280;75144;52.360;9.814;2024-01-07T06:34:50;101489.34;;;-0.55;81.34
84882;BME280;75144;52.360;9.814;2024-01-07T06:37:15;101493.50;;;-0.55;81.68
84882;BME280;75144;52.360;9.814;2024-01-07T06:39:41;101499.22;;;-0.58;79.99
84882;BME280;75144;52.360;9.814;2024-01-07T06:42:06;101506.81;;;-0.58;81.06
84882;BME280;75144;52.360;9.814;2024-01-07T06:44:31;101517.63;;;-0.60;81.00
84882;BME280;75144;52.360;9.814;2024-01-07T06:46:56;101517.38;;;-0.63;81.48
84882;BME280;75144;52.360;9.814;2024-01-07T06:49:22;101519.03;;;-0.64;80.45
84882;BME280;75144;52.360;9.814;2024-01-07T06:51:47;101528.41;;;-0.63;80.89
84882;BME280;75144;52.360;9.814;2024-01-07T06:54:12;101529.81;;;-0.66;80.33
84882;BME280;75144;52.360;9.814;2024-01-07T06:56:37;101526.78;;;-0.72;81.16
84882;BME280;75144;52.360;9.814;2024-01-07T06:59:03;101543.63;;;-0.73;81.94
84882;BME280;75144;52.360;9.814;2024-01-07T07:01:28;101545.44;;;-0.72;81.95
84882;BME280;75144;52.360;9.814;2024-01-07T07:03:53;101546.16;;;-0.73;83.84
84882;BME280;75144;52.360;9.814;2024-01-07T07:06:18;101557.72;;;-0.76;81.48
84882;BME280;75144;52.360;9.814;2024-01-07T07:08:45;101555.19;;;-0.76;82.13
84882;BME280;75144;52.360;9.814;2024-01-07T07:11:10;101566.88;;;-0.78;82.07
84882;BME280;75144;52.360;9.814;2024-01-07T07:13:35;101572.56;;;-0.81;83.29
84882;BME280;75144;52.360;9.814;2024-01-07T07:16:01;101572.44;;;-0.82;82.37
84882;BME280;75144;52.360;9.814;2024-01-07T07:18:26;101581.31;;;-0.77;82.88
84882;BME280;75144;52.360;9.814;2024-01-07T07:20:51;101574.47;;;-0.78;81.89
84882;BME280;75144;52.360;9.814;2024-01-07T07:23:17;101575.25;;;-0.79;81.74
84882;BME280;75144;52.360;9.814;2024-01-07T07:25:43;101579.41;;;-0.80;82.71
84882;BME280;75144;52.360;9.814;2024-01-07T07:28:08;101583.19;;;-0.75;82.82
84882;BME280;75144;52.360;9.814;2024-01-07T07:30:33;101578.13;;;-0.75;82.20
84882;BME280;75144;52.360;9.814;2024-01-07T07:32:58;101593.69;;;-0.70;82.34
84882;BME280;75144;52.360;9.814;2024-01-07T07:35:24;101595.50;;;-0.69;83.17
84882;BME280;75144;52.360;9.814;2024-01-07T07:37:49;101601.31;;;-0.70;83.07
84882;BME280;75144;52.360;9.814;2024-01-07T07:40:14;101602.06;;;-0.71;83.02
84882;BME280;75144;52.360;9.814;2024-01-07T07:42:39;101610.31;;;-0.64;83.79
84882;BME280;75144;52.360;9.814;2024-01-07T07:45:05;101613.59;;;-0.65;84.53
84882;BME280;75144;52.360;9.814;2024-01-07T07:47:31;101620.59;;;-0.62;83.40
